Time;durP1;ratioP1;P1;durP2;ratioP2;P2;SDS_P1;SDS_P2;PMS_P1;PMS_P2;Temp;Humidity;BMP_temperature;BMP_pressure;BME280_temperature;BME280_humidity;BME280_pressure;Samples;Min_cycle;Max_cycle;Signal;HPM_P1;HPM_P2
2020/12/22 00:00:06;;;;;;;5.37;4.50;;;10.50;99.90;;;;;;4856514;29;20274;-92
2020/12/22 00:02:32;;;;;;;6.17;4.03;;;10.60;99.90;;;;;;4842715;29;20184;-91
2020/12/22 00:04:58;;;;;;;5.27;3.87;;;10.60;99.90;;;;;;4811036;29;20261;-92
2020/12/22 00:07:24;;;;;;;5.83;4.17;;;10.60;99.90;;;;;;4857345;29;21034;-89
2020/12/22 00:09:50;;;;;;;8.23;4.33;;;10.70;99.90;;;;;;4842575;29;20252;-93
2020/12/22 00:12:16;;;;;;;6.47;3.70;;;10.70;99.90;;;;;;4841224;29;20202;-94
2020/12/22 00:14:44;;;;;;;4.47;3.03;;;10.70;99.90;;;;;;4843440;29;20188;-92
2020/12/22 00:17:10;;;;;;;5.10;3.73;;;10.80;99.90;;;;;;4856228;29;20254;-93
2020/12/22 00:19:36;;;;;;;6.77;3.83;;;10.90;99.90;;;;;;4827474;29;20236;-92
2020/12/22 00:22:02;;;;;;;5.37;3.77;;;11.00;99.90;;;;;;4840750;29;20318;-92
2020/12/22 00:24:28;;;;;;;5.87;3.57;;;11.00;99.90;;;;;;4827473;29;20276;-92
2020/12/22 00:26:54;;;;;;;4.10;2.57;;;11.00;99.90;;;;;;4826990;29;20642;-94
2020/12/22 00:29:20;;;;;;;5.53;3.30;;;11.10;99.90;;;;;;4840361;29;20235;-92
2020/12/22 00:31:46;;;;;;;4.40;2.37;;;11.20;99.90;;;;;;4841041;29;20232;-92
2020/12/22 00:34:14;;;;;;;9.90;3.13;;;11.20;99.90;;;;;;4847760;29;20254;-93
2020/12/22 00:36:40;;;;;;;11.47;4.10;;;11.20;99.90;;;;;;4827535;29;20339;-93
2020/12/22 00:39:06;;;;;;;6.57;3.27;;;11.20;99.90;;;;;;4830660;29;20235;-92
2020/12/22 00:41:32;;;;;;;4.77;2.63;;;11.20;99.90;;;;;;4845323;29;20296;-91
2020/12/22 00:43:58;;;;;;;3.73;2.50;;;11.30;99.90;;;;;;4827753;29;20296;-92
2020/12/22 00:46:23;;;;;;;6.97;2.50;;;11.20;99.90;;;;;;4828903;29;21069;-92
2020/12/22 00:48:49;;;;;;;5.60;3.27;;;11.30;99.90;;;;;;4828492;29;20250;-92
2020/12/22 00:51:22;;;;;;;8.93;2.70;;;11.30;99.90;;;;;;4812382;29;20204;-92
2020/12/22 00:53:48;;;;;;;6.67;2.93;;;11.30;99.90;;;;;;4858133;29;20211;-91
2020/12/22 00:56:14;;;;;;;3.80;2.57;;;11.40;99.90;;;;;;4812574;29;20256;-91
2020/12/22 00:58:40;;;;;;;16.20;3.10;;;11.40;99.90;;;;;;4813891;29;20307;-93
2020/12/22 01:01:06;;;;;;;10.60;1.90;;;11.50;99.90;;;;;;4828197;29;20683;-92
2020/12/22 01:03:32;;;;;;;6.50;2.87;;;11.50;99.90;;;;;;4827429;29;20224;-93
2020/12/22 01:05:57;;;;;;;13.73;3.07;;;11.50;99.90;;;;;;4833673;29;20318;-91
2020/12/22 01:08:23;;;;;;;2.60;0.90;;;11.50;99.90;;;;;;4827282;29;20259;-93
2020/12/22 01:10:49;;;;;;;10.20;2.30;;;11.50;99.90;;;;;;4844261;29;20228;-93
2020/12/22 01:13:15;;;;;;;6.63;1.80;;;11.50;99.90;;;;;;4821410;29;20232;-92
2020/12/22 01:15:41;;;;;;;5.60;1.57;;;11.50;99.90;;;;;;4842585;29;20303;-94
2020/12/22 01:18:07;;;;;;;0.80;0.63;;;11.50;99.90;;;;;;4827436;29;20734;-92
2020/12/22 01:20:32;;;;;;;2.97;1.57;;;11.60;99.90;;;;;;4845295;29;20632;-94
2020/12/22 01:22:58;;;;;;;2.63;1.33;;;11.60;99.90;;;;;;4842338;29;20232;-92
2020/12/22 01:25:24;;;;;;;2.43;0.93;;;11.50;99.90;;;;;;4843915;29;20228;-91
2020/12/22 01:27:50;;;;;;;4.33;1.50;;;11.50;99.90;;;;;;4812016;29;20231;-90
2020/12/22 01:30:15;;;;;;;0.80;0.80;;;11.50;99.90;;;;;;4827834;29;20200;-92
2020/12/22 01:32:41;;;;;;;2.37;1.17;;;11.50;99.90;;;;;;4816125;29;20203;-93
2020/12/22 01:35:07;;;;;;;0.80;0.80;;;11.50;99.90;;;;;;4811833;29;20314;-92
2020/12/22 01:37:33;;;;;;;2.53;1.00;;;11.50;99.90;;;;;;4829457;29;20224;-91
2020/12/22 01:39:58;;;;;;;1.70;1.20;;;11.60;99.90;;;;;;4816406;29;20899;-91
2020/12/22 01:42:24;;;;;;;0.83;0.67;;;11.50;99.90;;;;;;4825438;29;20238;-91
2020/12/22 01:44:50;;;;;;;2.30;1.10;;;11.50;99.90;;;;;;4826693;29;21099;-92
2020/12/22 01:47:16;;;;;;;1.70;0.90;;;11.50;99.90;;;;;;4810479;29;20705;-90
2020/12/22 01:49:42;;;;;;;1.10;1.00;;;11.50;99.90;;;;;;4812934;29;20232;-91
2020/12/22 01:52:08;;;;;;;3.50;1.53;;;11.60;99.90;;;;;;4842886;29;20220;-94
2020/12/22 01:54:33;;;;;;;1.23;0.90;;;11.60;99.90;;;;;;4840814;29;20230;-91
2020/12/22 01:57:10;;;;;;;4.50;1.43;;;11.60;99.90;;;;;;4844728;29;20268;-92
2020/12/22 01:59:35;;;;;;;3.27;1.17;;;11.60;99.90;;;;;;4845162;29;20262;-93
2020/12/22 02:02:01;;;;;;;1.43;1.07;;;11.60;99.90;;;;;;4826243;29;21092;-93
2020/12/22 02:04:28;;;;;;;0.97;0.47;;;11.70;99.90;;;;;;4828761;29;20231;-94
2020/12/22 02:06:55;;;;;;;1.00;1.00;;;11.60;99.90;;;;;;4843696;29;20327;-92
2020/12/22 02:09:20;;;;;;;5.27;1.30;;;11.60;99.90;;;;;;4827592;29;23393;-95
2020/12/22 02:11:46;;;;;;;2.20;1.40;;;11.60;99.90;;;;;;4828130;29;20205;-91
2020/12/22 02:14:12;;;;;;;4.80;1.17;;;11.60;99.90;;;;;;4842034;29;21158;-93
2020/12/22 02:16:39;;;;;;;4.57;1.50;;;11.60;99.90;;;;;;4828552;29;20245;-94
2020/12/22 02:19:04;;;;;;;8.07;1.57;;;11.60;99.90;;;;;;4825960;29;20216;-94
2020/12/22 02:21:30;;;;;;;4.53;2.53;;;11.60;99.90;;;;;;4857651;29;20687;-92
2020/12/22 02:23:56;;;;;;;2.90;0.87;;;11.60;99.90;;;;;;4860968;29;20204;-93
2020/12/22 02:26:23;;;;;;;2.20;0.90;;;11.60;99.90;;;;;;4842806;29;20219;-92
2020/12/22 02:28:54;;;;;;;2.37;0.70;;;11.70;99.90;;;;;;4842329;29;20236;-93
2020/12/22 02:31:26;;;;;;;4.20;1.33;;;11.60;99.90;;;;;;4842467;29;20236;-91
2020/12/22 02:33:54;;;;;;;1.97;1.63;;;11.60;99.90;;;;;;4843790;29;20224;-92
2020/12/22 02:36:20;;;;;;;3.83;1.00;;;11.60;99.90;;;;;;4833365;29;20336;-92
2020/12/22 02:38:46;;;;;;;0.50;0.30;;;11.60;99.90;;;;;;4841661;29;20660;-93
2020/12/22 02:41:12;;;;;;;2.07;0.97;;;11.60;99.90;;;;;;4834273;29;20219;-92
2020/12/22 02:43:41;;;;;;;1.23;0.50;;;11.50;99.90;;;;;;4855693;29;20248;-92
2020/12/22 02:46:07;;;;;;;2.77;0.70;;;11.50;99.90;;;;;;4839902;29;20231;-92
2020/12/22 02:48:35;;;;;;;2.37;0.60;;;11.50;99.90;;;;;;4847299;29;20702;-93
2020/12/22 02:51:01;;;;;;;3.87;1.90;;;11.50;99.90;;;;;;4840145;29;20208;-90
2020/12/22 02:53:27;;;;;;;5.47;1.53;;;11.60;99.90;;;;;;4842496;29;20225;-92
2020/12/22 02:55:54;;;;;;;3.57;1.87;;;11.60;99.90;;;;;;4841546;29;20316;-91
2020/12/22 02:58:20;;;;;;;2.00;1.37;;;11.50;99.90;;;;;;4855322;29;20304;-91
2020/12/22 03:00:46;;;;;;;2.20;1.63;;;11.60;99.90;;;;;;4821575;29;20224;-91
2020/12/22 03:03:12;;;;;;;0.93;0.73;;;11.50;99.90;;;;;;4838200;29;20197;-95
2020/12/22 03:05:40;;;;;;;3.53;1.80;;;11.60;99.90;;;;;;4838925;29;20193;-92
2020/12/22 03:08:08;;;;;;;3.33;2.13;;;11.50;99.90;;;;;;4838253;29;20323;-94
2020/12/22 03:10:34;;;;;;;6.23;2.20;;;11.50;99.90;;;;;;4822390;29;20305;-92
2020/12/22 03:13:00;;;;;;;12.10;2.03;;;11.50;99.90;;;;;;4837343;29;20762;-92
2020/12/22 03:15:26;;;;;;;12.43;2.47;;;11.50;99.90;;;;;;4834432;29;20220;-91
2020/12/22 03:17:51;;;;;;;2.37;1.90;;;11.50;99.90;;;;;;4837718;29;20665;-92
2020/12/22 03:20:17;;;;;;;5.10;2.50;;;11.50;99.90;;;;;;4819935;29;20701;-91
2020/12/22 03:22:43;;;;;;;8.50;3.57;;;11.50;99.90;;;;;;4838951;29;20220;-91
2020/12/22 03:25:12;;;;;;;7.97;2.43;;;11.50;99.90;;;;;;4857811;29;20224;-91
2020/12/22 03:27:41;;;;;;;3.83;1.60;;;11.50;99.90;;;;;;4833004;29;20232;-91
2020/12/22 03:30:09;;;;;;;6.93;2.70;;;11.60;99.90;;;;;;4840914;29;20216;-92
2020/12/22 03:32:39;;;;;;;7.80;2.37;;;11.60;99.90;;;;;;4842877;29;20197;-90
2020/12/22 03:35:06;;;;;;;4.90;1.33;;;11.60;99.90;;;;;;4826425;29;20220;-92
2020/12/22 03:37:32;;;;;;;7.40;2.17;;;11.60;99.90;;;;;;4841010;29;20238;-92
2020/12/22 03:40:00;;;;;;;2.57;0.93;;;11.60;99.90;;;;;;4840518;29;20228;-92
2020/12/22 03:42:27;;;;;;;19.00;3.03;;;11.60;99.90;;;;;;4841288;29;20230;-90
2020/12/22 03:44:53;;;;;;;3.83;1.00;;;11.60;99.90;;;;;;4840331;29;20195;-91
2020/12/22 03:47:19;;;;;;;4.33;2.13;;;11.60;99.90;;;;;;4842331;29;20656;-90
2020/12/22 03:49:45;;;;;;;4.57;2.53;;;11.60;99.90;;;;;;4840248;29;20602;-90
2020/12/22 03:52:11;;;;;;;7.10;1.23;;;11.60;99.90;;;;;;4840748;29;20292;-92
2020/12/22 03:54:37;;;;;;;6.00;1.00;;;11.60;99.90;;;;;;4842984;29;20337;-92
2020/12/22 03:57:04;;;;;;;8.90;1.30;;;11.60;99.90;;;;;;4841989;29;20197;-92
2020/12/22 03:59:32;;;;;;;3.83;2.00;;;11.60;99.90;;;;;;4843844;29;20193;-92
2020/12/22 04:02:02;;;;;;;3.80;0.73;;;11.60;99.90;;;;;;4842196;29;20252;-92
2020/12/22 04:04:28;;;;;;;3.67;1.47;;;11.60;99.90;;;;;;4842110;29;20233;-90
2020/12/22 04:06:54;;;;;;;0.37;0.37;;;11.60;99.90;;;;;;4839668;29;20232;-91
2020/12/22 04:09:21;;;;;;;8.33;1.70;;;11.70;99.90;;;;;;4839395;29;20303;-91
2020/12/22 04:11:49;;;;;;;0.73;0.67;;;11.70;99.90;;;;;;4832760;29;20202;-93
2020/12/22 04:14:15;;;;;;;10.17;2.00;;;11.70;99.90;;;;;;4832137;29;20291;-92
2020/12/22 04:16:40;;;;;;;6.10;2.17;;;11.70;99.90;;;;;;4832828;29;20240;-91
2020/12/22 04:19:07;;;;;;;5.97;2.27;;;11.70;99.90;;;;;;4845168;29;20238;-93
2020/12/22 04:21:34;;;;;;;8.90;1.03;;;11.70;99.90;;;;;;4848229;29;20224;-92
2020/12/22 04:23:59;;;;;;;3.47;1.00;;;11.70;99.90;;;;;;4816967;29;20196;-91
2020/12/22 04:26:26;;;;;;;6.20;1.70;;;11.70;99.90;;;;;;4827810;29;20227;-92
2020/12/22 04:28:51;;;;;;;2.20;0.93;;;11.70;99.90;;;;;;4837734;29;20232;-92
2020/12/22 04:31:21;;;;;;;3.30;1.20;;;11.70;99.90;;;;;;4831836;29;20287;-93
2020/12/22 04:33:54;;;;;;;5.37;0.90;;;11.70;99.90;;;;;;4846117;29;20754;-92
2020/12/22 04:36:21;;;;;;;4.13;0.80;;;11.70;99.90;;;;;;4832139;29;20192;-91
2020/12/22 04:38:48;;;;;;;7.40;1.50;;;11.70;99.90;;;;;;4849623;29;20201;-90
2020/12/22 04:41:15;;;;;;;4.40;1.67;;;11.70;99.90;;;;;;4847768;29;20252;-90
2020/12/22 04:43:43;;;;;;;8.97;2.53;;;11.70;99.90;;;;;;4846905;29;20593;-93
2020/12/22 04:46:09;;;;;;;2.47;1.43;;;11.70;99.90;;;;;;4845080;29;20248;-90
2020/12/22 04:48:37;;;;;;;2.17;1.07;;;11.80;99.90;;;;;;4813904;29;20233;-92
2020/12/22 04:51:07;;;;;;;4.83;1.03;;;11.80;99.90;;;;;;4863342;29;21232;-92
2020/12/22 04:53:34;;;;;;;5.63;0.87;;;11.80;99.90;;;;;;4848026;29;20276;-91
2020/12/22 04:56:01;;;;;;;20.47;3.53;;;11.80;99.90;;;;;;4845538;29;20220;-91
2020/12/22 04:58:28;;;;;;;6.83;3.40;;;11.80;99.90;;;;;;4832887;29;20283;-91
2020/12/22 05:00:58;;;;;;;3.97;1.47;;;11.70;99.90;;;;;;4846283;29;20292;-92
2020/12/22 05:03:24;;;;;;;15.50;2.17;;;11.70;99.90;;;;;;4846569;29;20247;-91
2020/12/22 05:05:51;;;;;;;0.97;0.90;;;11.70;99.90;;;;;;4833836;29;20761;-92
2020/12/22 05:08:18;;;;;;;6.27;1.10;;;11.70;99.90;;;;;;4862431;29;20240;-91
2020/12/22 05:10:45;;;;;;;12.43;1.30;;;11.70;99.90;;;;;;4861288;29;20354;-90
2020/12/22 05:13:13;;;;;;;5.53;1.37;;;11.70;99.90;;;;;;4862519;29;20616;-90
2020/12/22 05:15:43;;;;;;;7.47;1.57;;;11.70;99.90;;;;;;4830537;29;20295;-91
2020/12/22 05:18:09;;;;;;;6.33;1.50;;;11.70;99.90;;;;;;4835755;29;20203;-92
2020/12/22 05:20:40;;;;;;;9.80;1.73;;;11.70;99.90;;;;;;4847165;29;20199;-89
2020/12/22 05:23:12;;;;;;;9.73;2.70;;;11.70;99.90;;;;;;4842412;29;20225;-91
2020/12/22 05:25:38;;;;;;;4.47;0.87;;;11.70;99.90;;;;;;4858668;29;20225;-91
2020/12/22 05:28:07;;;;;;;5.13;1.53;;;11.70;99.90;;;;;;4826339;29;20706;-91
2020/12/22 05:30:33;;;;;;;7.00;1.70;;;11.70;99.90;;;;;;4856621;29;20232;-89
2020/12/22 05:32:58;;;;;;;5.57;2.60;;;11.70;99.90;;;;;;4844869;29;20225;-92
2020/12/22 05:35:24;;;;;;;5.97;1.07;;;11.70;99.90;;;;;;4827359;29;20306;-90
2020/12/22 05:37:52;;;;;;;4.43;2.00;;;11.70;99.90;;;;;;4824332;29;20283;-90
2020/12/22 05:40:18;;;;;;;8.00;1.33;;;11.70;99.90;;;;;;4828396;29;20224;-92
2020/12/22 05:42:46;;;;;;;1.37;1.27;;;11.70;99.90;;;;;;4827711;29;20308;-89
2020/12/22 05:45:12;;;;;;;9.60;2.10;;;11.70;99.90;;;;;;4855204;29;20267;-89
2020/12/22 05:47:38;;;;;;;2.10;0.70;;;11.70;99.90;;;;;;4826996;29;20219;-90
2020/12/22 05:50:05;;;;;;;1.67;1.27;;;11.70;99.90;;;;;;4825720;29;20240;-90
2020/12/22 05:52:31;;;;;;;3.80;1.20;;;11.70;99.90;;;;;;4843183;29;20286;-90
2020/12/22 05:54:58;;;;;;;8.63;1.37;;;11.80;99.90;;;;;;4826073;29;20326;-91
2020/12/22 05:57:28;;;;;;;2.07;1.10;;;11.80;99.90;;;;;;4842133;29;20239;-89
2020/12/22 05:59:55;;;;;;;7.40;2.13;;;11.70;99.90;;;;;;4859963;29;20235;-89
2020/12/22 06:02:30;;;;;;;0.90;0.90;;;11.70;99.90;;;;;;4842456;29;20220;-90
2020/12/22 06:05:01;;;;;;;7.17;2.43;;;11.70;99.90;;;;;;4858408;29;20220;-91
2020/12/22 06:07:28;;;;;;;1.10;0.53;;;11.60;99.90;;;;;;4841411;29;20235;-90
2020/12/22 06:09:55;;;;;;;8.17;2.77;;;11.60;99.90;;;;;;4843288;29;20243;-89
2020/12/22 06:12:22;;;;;;;9.33;1.77;;;11.60;99.90;;;;;;4840725;29;20196;-89
2020/12/22 06:14:49;;;;;;;4.67;1.30;;;11.60;99.90;;;;;;4828413;29;20212;-90
2020/12/22 06:17:16;;;;;;;12.63;2.87;;;11.60;99.90;;;;;;4842777;29;20243;-90
2020/12/22 06:19:43;;;;;;;8.60;2.47;;;11.70;99.90;;;;;;4861850;29;20267;-87
2020/12/22 06:22:11;;;;;;;5.83;1.70;;;11.70;99.90;;;;;;4828499;29;20232;-88
2020/12/22 06:24:37;;;;;;;9.60;2.10;;;11.70;99.90;;;;;;4853541;29;20305;-91
2020/12/22 06:27:05;;;;;;;7.43;2.23;;;11.70;99.90;;;;;;4839351;29;20185;-89
2020/12/22 06:29:32;;;;;;;6.50;1.60;;;11.70;99.90;;;;;;4844320;29;20229;-89
2020/12/22 06:32:16;;;;;;;4.40;1.60;;;11.70;99.90;;;;;;4857895;29;20228;-89
2020/12/22 06:34:46;;;;;;;14.50;1.17;;;11.70;99.90;;;;;;4841183;29;20213;-91
2020/12/22 06:37:12;;;;;;;5.40;1.90;;;11.70;99.90;;;;;;4842906;29;20220;-89
2020/12/22 06:39:49;;;;;;;3.10;0.67;;;11.80;99.90;;;;;;4858804;29;20235;-89
2020/12/22 06:42:41;;;;;;;10.73;1.33;;;11.80;99.90;;;;;;4826256;29;20188;-91
2020/12/22 06:45:29;;;;;;;2.10;0.77;;;11.70;99.90;;;;;;4844831;29;20212;-89
2020/12/22 06:47:56;;;;;;;3.13;1.90;;;11.80;99.90;;;;;;4844509;29;20201;-90
2020/12/22 06:50:47;;;;;;;23.33;1.67;;;11.70;99.90;;;;;;4857696;29;20235;-90
2020/12/22 06:53:35;;;;;;;6.53;1.73;;;11.80;99.90;;;;;;4840481;29;20242;-89
2020/12/22 06:56:04;;;;;;;5.10;2.17;;;11.70;99.90;;;;;;4829843;29;20339;-89
2020/12/22 06:58:47;;;;;;;3.23;0.80;;;11.60;99.90;;;;;;4819010;29;20309;-89
2020/12/22 07:01:45;;;;;;;10.10;1.43;;;11.40;99.90;;;;;;4842558;29;20228;-90
2020/12/22 07:04:40;;;;;;;2.97;1.83;;;11.20;99.90;;;;;;4828613;29;20303;-90
2020/12/22 07:07:06;;;;;;;1.53;1.43;;;11.00;99.90;;;;;;4855381;29;20216;-89
2020/12/22 07:09:34;;;;;;;5.60;0.57;;;10.80;99.90;;;;;;4842505;29;20241;-90
2020/12/22 07:12:09;;;;;;;2.37;0.53;;;10.50;99.90;;;;;;4841407;29;20196;-89
2020/12/22 07:14:48;;;;;;;6.20;1.40;;;10.20;99.90;;;;;;4840125;29;20224;-90
2020/12/22 07:17:16;;;;;;;0.80;0.70;;;10.00;99.90;;;;;;4841063;29;20248;-92
2020/12/22 07:19:47;;;;;;;4.60;1.20;;;9.90;99.90;;;;;;4842456;29;20235;-89
2020/12/22 07:22:17;;;;;;;1.20;1.20;;;9.80;99.90;;;;;;4839168;29;20300;-95
2020/12/22 07:24:44;;;;;;;0.80;0.80;;;9.70;99.90;;;;;;4845792;29;20255;-92
2020/12/22 07:27:11;;;;;;;5.03;0.97;;;9.70;99.90;;;;;;4839247;29;20195;-94
2020/12/22 07:29:42;;;;;;;2.37;1.33;;;9.60;99.90;;;;;;4845261;29;20220;-93
2020/12/22 07:32:09;;;;;;;6.30;1.40;;;9.50;99.90;;;;;;4817509;29;20316;-90
2020/12/22 07:34:36;;;;;;;3.47;1.83;;;9.50;99.90;;;;;;4836538;29;20232;-89
2020/12/22 07:37:04;;;;;;;9.10;1.40;;;9.50;99.90;;;;;;4840748;29;20227;-91
2020/12/22 07:39:31;;;;;;;1.50;1.00;;;9.50;99.90;;;;;;4839413;29;20268;-92
2020/12/22 07:42:07;;;;;;;4.50;2.33;;;9.50;99.90;;;;;;4858747;29;20188;-90
2020/12/22 07:44:33;;;;;;;2.20;1.50;;;9.50;99.90;;;;;;4840929;29;20246;-90
2020/12/22 07:46:58;;;;;;;5.47;1.53;;;9.40;99.90;;;;;;4825308;29;20523;-92
2020/12/22 07:49:24;;;;;;;1.67;1.57;;;9.40;99.90;;;;;;4839795;29;20243;-89
2020/12/22 07:51:50;;;;;;;1.10;1.00;;;9.40;99.90;;;;;;4855999;29;20231;-88
2020/12/22 07:54:16;;;;;;;1.90;0.83;;;9.40;99.90;;;;;;4830071;29;20252;-88
2020/12/22 07:56:44;;;;;;;0.47;0.47;;;9.30;99.90;;;;;;4842780;29;20201;-90
2020/12/22 07:59:14;;;;;;;0.77;0.77;;;9.40;99.90;;;;;;4825796;29;20236;-91
2020/12/22 08:01:45;;;;;;;0.83;0.70;;;9.30;99.90;;;;;;4840080;29;20216;-93
2020/12/22 08:04:15;;;;;;;0.47;0.20;;;9.40;99.90;;;;;;4825587;29;20345;-91
2020/12/22 08:06:52;;;;;;;7.23;0.80;;;9.30;99.90;;;;;;4824669;29;20230;-95
2020/12/22 08:09:24;;;;;;;1.57;1.13;;;9.40;99.90;;;;;;4823057;29;20573;-92
2020/12/22 08:11:52;;;;;;;0.63;0.57;;;9.40;99.90;;;;;;4853742;29;20294;-91
2020/12/22 08:14:20;;;;;;;2.63;0.80;;;9.30;99.90;;;;;;4853635;29;20267;-92
2020/12/22 08:16:48;;;;;;;1.40;0.90;;;9.30;99.90;;;;;;4822610;29;20240;-92
2020/12/22 08:19:15;;;;;;;1.47;0.80;;;9.30;99.90;;;;;;4849856;29;20219;-91
2020/12/22 08:21:41;;;;;;;2.00;1.33;;;9.30;99.90;;;;;;4820626;29;20345;-89
2020/12/22 08:24:07;;;;;;;1.07;0.80;;;9.30;99.90;;;;;;4804673;29;20192;-91
2020/12/22 08:26:33;;;;;;;0.67;0.67;;;9.30;99.90;;;;;;4837275;29;20252;-93
2020/12/22 08:29:03;;;;;;;3.83;1.53;;;9.30;99.90;;;;;;4837445;29;20259;-91
2020/12/22 08:31:35;;;;;;;2.87;0.93;;;9.30;99.90;;;;;;4836538;29;20252;-93
2020/12/22 08:34:05;;;;;;;0.93;0.93;;;9.30;99.90;;;;;;4842032;29;20282;-92
2020/12/22 08:36:31;;;;;;;0.57;0.57;;;9.30;99.90;;;;;;4855701;29;20232;-91
2020/12/22 08:39:25;;;;;;;0.63;0.63;;;9.20;99.90;;;;;;4829327;29;20267;-90
2020/12/22 08:41:56;;;;;;;0.80;0.80;;;9.20;99.90;;;;;;4845819;29;20251;-93
2020/12/22 08:44:24;;;;;;;0.70;0.70;;;9.20;99.90;;;;;;4832836;29;20704;-95
2020/12/22 08:46:50;;;;;;;1.53;1.17;;;9.20;99.90;;;;;;4833815;29;20251;-92
2020/12/22 08:49:17;;;;;;;0.40;0.40;;;9.20;99.90;;;;;;4824717;29;20288;-93
2020/12/22 08:51:44;;;;;;;12.37;1.17;;;9.20;99.90;;;;;;4824746;29;20224;-92
2020/12/22 08:54:11;;;;;;;0.83;0.60;;;9.30;99.90;;;;;;4838006;29;20208;-91
2020/12/22 08:56:37;;;;;;;3.40;1.07;;;9.30;99.90;;;;;;4826739;29;20197;-88
2020/12/22 08:59:05;;;;;;;1.13;0.53;;;9.30;99.90;;;;;;4830585;29;20597;-90
2020/12/22 09:01:41;;;;;;;4.07;0.73;;;9.40;99.90;;;;;;4862418;29;20232;-92
2020/12/22 09:04:08;;;;;;;0.53;0.53;;;9.40;99.90;;;;;;4831598;29;20689;-89
2020/12/22 09:06:45;;;;;;;0.20;0.20;;;9.40;99.90;;;;;;4864403;29;20332;-90
2020/12/22 09:09:16;;;;;;;0.10;0.10;;;9.40;99.90;;;;;;4858051;29;20215;-90
2020/12/22 09:11:43;;;;;;;0.47;0.47;;;9.50;99.90;;;;;;4869588;29;20703;-89
2020/12/22 09:14:19;;;;;;;0.40;0.30;;;9.50;99.90;;;;;;4852308;29;20283;-92
2020/12/22 09:16:56;;;;;;;0.43;0.43;;;9.50;99.90;;;;;;4843709;29;20244;-90
2020/12/22 09:19:23;;;;;;;0.13;0.13;;;9.50;99.90;;;;;;4844000;29;20228;-93
2020/12/22 09:22:00;;;;;;;0.50;0.50;;;9.50;99.90;;;;;;4844422;29;20268;-90
2020/12/22 09:24:26;;;;;;;0.83;0.30;;;9.50;99.90;;;;;;4843905;29;20239;-90
2020/12/22 09:26:56;;;;;;;0.27;0.27;;;9.50;99.90;;;;;;4845767;29;20192;-90
2020/12/22 09:29:23;;;;;;;0.40;0.37;;;9.50;99.90;;;;;;4830201;29;20243;-93
2020/12/22 09:31:49;;;;;;;2.70;0.33;;;9.50;99.90;;;;;;4829327;29;20234;-92
2020/12/22 09:34:15;;;;;;;0.93;0.77;;;9.50;99.90;;;;;;4829666;29;20255;-90
2020/12/22 09:36:41;;;;;;;0.63;0.53;;;9.50;99.90;;;;;;4829838;29;21158;-91
2020/12/22 09:39:07;;;;;;;0.73;0.27;;;9.50;99.90;;;;;;4861386;29;20305;-92
2020/12/22 09:41:42;;;;;;;1.33;0.53;;;9.50;99.90;;;;;;4846200;29;20666;-90
2020/12/22 09:44:08;;;;;;;1.40;1.30;;;9.50;99.90;;;;;;4862252;29;20227;-90
2020/12/22 09:46:34;;;;;;;6.40;1.03;;;9.50;99.90;;;;;;4846299;29;20275;-93
2020/12/22 09:48:59;;;;;;;0.40;0.40;;;9.50;99.90;;;;;;4859345;29;20271;-92
2020/12/22 09:51:25;;;;;;;1.60;1.50;;;9.50;99.90;;;;;;4858145;29;20234;-92
2020/12/22 09:53:51;;;;;;;1.50;0.20;;;9.60;99.90;;;;;;4831003;29;20232;-91
2020/12/22 09:56:17;;;;;;;12.27;0.80;;;9.60;99.90;;;;;;4840802;29;20584;-90
2020/12/22 09:58:43;;;;;;;4.83;0.63;;;9.60;99.90;;;;;;4842699;29;20224;-91
2020/12/22 10:01:09;;;;;;;0.70;0.50;;;9.60;99.90;;;;;;4861867;29;20702;-91
2020/12/22 10:03:35;;;;;;;0.17;0.17;;;9.50;99.90;;;;;;4859392;29;20232;-90
2020/12/22 10:06:01;;;;;;;0.43;0.40;;;9.50;99.90;;;;;;4845406;29;20193;-87
2020/12/22 10:08:26;;;;;;;0.33;0.33;;;9.50;99.90;;;;;;4810150;29;20604;-87
2020/12/22 10:10:52;;;;;;;0.40;0.30;;;9.50;99.90;;;;;;4839884;29;20703;-85
2020/12/22 10:13:18;;;;;;;1.80;1.17;;;9.50;99.90;;;;;;4824885;29;20224;-87
2020/12/22 10:15:44;;;;;;;0.10;0.10;;;9.50;99.90;;;;;;4824406;29;20735;-88
2020/12/22 10:18:10;;;;;;;1.90;0.77;;;9.50;99.90;;;;;;4842876;29;20667;-88
2020/12/22 10:20:37;;;;;;;0.30;0.30;;;9.50;99.90;;;;;;4828406;29;20200;-89
2020/12/22 10:23:03;;;;;;;2.47;0.37;;;9.50;99.90;;;;;;4841784;29;20224;-90
2020/12/22 10:25:29;;;;;;;1.17;0.87;;;9.60;99.90;;;;;;4843812;29;20236;-89
2020/12/22 10:27:55;;;;;;;10.57;1.23;;;9.60;99.90;;;;;;4842316;29;20234;-90
2020/12/22 10:30:21;;;;;;;2.00;1.90;;;9.60;99.90;;;;;;4842070;29;20710;-88
2020/12/22 10:32:48;;;;;;;1.47;0.57;;;9.50;99.90;;;;;;4829295;29;20196;-88
2020/12/22 10:35:13;;;;;;;2.00;0.77;;;9.50;99.90;;;;;;4857806;29;20763;-88
2020/12/22 10:37:39;;;;;;;0.53;0.53;;;9.50;99.90;;;;;;4825104;29;20722;-88
2020/12/22 10:40:05;;;;;;;0.80;0.73;;;9.40;99.90;;;;;;4827276;29;20315;-87
2020/12/22 10:42:31;;;;;;;1.33;1.03;;;9.40;99.90;;;;;;4841899;29;20236;-86
2020/12/22 10:44:57;;;;;;;1.67;1.07;;;9.40;99.90;;;;;;4826883;29;20208;-88
2020/12/22 10:47:23;;;;;;;2.50;1.57;;;9.40;99.90;;;;;;4839777;29;20224;-87
2020/12/22 10:49:49;;;;;;;1.83;1.17;;;9.50;99.90;;;;;;4855642;29;20292;-87
2020/12/22 10:52:15;;;;;;;3.03;2.07;;;9.40;99.90;;;;;;4840761;29;20751;-89
2020/12/22 10:54:41;;;;;;;1.67;0.70;;;9.40;99.90;;;;;;4824526;29;20243;-88
2020/12/22 10:57:06;;;;;;;2.83;0.60;;;9.40;99.90;;;;;;4828510;29;20200;-89
2020/12/22 10:59:32;;;;;;;0.67;0.50;;;9.40;99.90;;;;;;4811583;29;20204;-88
2020/12/22 11:01:58;;;;;;;2.27;1.13;;;9.50;99.90;;;;;;4839808;29;20219;-87
2020/12/22 11:04:24;;;;;;;2.93;0.60;;;9.40;99.90;;;;;;4843076;29;20243;-88
2020/12/22 11:09:22;;;;;;;2.00;0.70;;;9.40;99.90;;;;;;4840628;29;20586;-87
2020/12/22 11:11:48;;;;;;;5.60;0.47;;;9.40;99.90;;;;;;4841629;29;20196;-88
2020/12/22 11:14:14;;;;;;;2.77;0.33;;;9.40;99.90;;;;;;4840705;29;20256;-88
2020/12/22 11:16:40;;;;;;;0.87;0.60;;;9.40;99.90;;;;;;4855321;29;20827;-88
2020/12/22 11:19:06;;;;;;;3.53;0.33;;;9.50;99.90;;;;;;4826183;29;20749;-88
2020/12/22 11:21:32;;;;;;;0.10;0.10;;;9.40;99.90;;;;;;4826000;29;20224;-88
2020/12/22 11:23:58;;;;;;;1.37;0.40;;;9.40;99.90;;;;;;4843344;29;20192;-87
2020/12/22 11:26:27;;;;;;;7.20;1.00;;;9.40;99.90;;;;;;4841700;29;20349;-89
2020/12/22 11:28:53;;;;;;;0.20;0.20;;;9.40;99.90;;;;;;4842054;29;20339;-88
2020/12/22 11:31:20;;;;;;;0.67;0.67;;;9.30;99.90;;;;;;4859325;29;20395;-87
2020/12/22 11:33:46;;;;;;;3.80;0.67;;;9.30;99.90;;;;;;4837620;29;20690;-87
2020/12/22 11:36:16;;;;;;;1.47;0.90;;;9.30;99.90;;;;;;4856405;29;20185;-89
2020/12/22 11:38:42;;;;;;;0.50;0.43;;;9.20;99.90;;;;;;4840860;29;20272;-88
2020/12/22 11:41:09;;;;;;;0.70;0.60;;;9.30;99.90;;;;;;4858185;29;20235;-87
2020/12/22 11:43:35;;;;;;;0.23;0.23;;;9.20;99.90;;;;;;4840070;29;21022;-88
2020/12/22 11:46:01;;;;;;;0.70;0.43;;;9.30;99.90;;;;;;4821965;29;20212;-88
2020/12/22 11:48:27;;;;;;;0.70;0.70;;;9.30;99.90;;;;;;4854263;29;20220;-88
2020/12/22 11:50:54;;;;;;;0.70;0.70;;;9.30;99.90;;;;;;4839898;29;20204;-88
2020/12/22 11:53:20;;;;;;;2.90;1.00;;;9.30;99.90;;;;;;4837398;29;20618;-89
2020/12/22 11:55:46;;;;;;;0.40;0.40;;;9.30;99.90;;;;;;4821603;29;20255;-88
2020/12/22 11:58:11;;;;;;;6.17;0.57;;;9.30;99.90;;;;;;4823602;29;20338;-89
2020/12/22 12:00:37;;;;;;;1.40;0.77;;;9.30;99.90;;;;;;4807762;29;21308;-88
2020/12/22 12:03:03;;;;;;;1.13;0.40;;;9.30;99.90;;;;;;4808262;29;20214;-87
2020/12/22 12:05:29;;;;;;;2.83;0.60;;;9.30;99.90;;;;;;4822565;29;20191;-88
2020/12/22 12:07:55;;;;;;;3.73;0.60;;;9.30;99.90;;;;;;4824498;29;20228;-86
2020/12/22 12:10:21;;;;;;;12.10;1.17;;;9.20;99.90;;;;;;4824262;29;20769;-86
2020/12/22 12:12:47;;;;;;;2.37;0.63;;;9.20;99.90;;;;;;4855559;29;20690;-87
2020/12/22 12:15:12;;;;;;;1.23;0.63;;;9.20;99.90;;;;;;4838831;29;20200;-87
2020/12/22 12:17:38;;;;;;;0.40;0.20;;;9.20;99.90;;;;;;4841802;29;20314;-89
2020/12/22 12:20:05;;;;;;;0.70;0.70;;;9.20;99.90;;;;;;4823756;29;21402;-88
2020/12/22 12:22:32;;;;;;;4.90;0.90;;;9.10;99.90;;;;;;4837615;29;20224;-85
2020/12/22 12:24:58;;;;;;;0.67;0.23;;;9.10;99.90;;;;;;4810871;29;20223;-88
2020/12/22 12:27:24;;;;;;;0.40;0.30;;;9.10;99.90;;;;;;4822978;29;20350;-87
2020/12/22 12:29:50;;;;;;;3.50;0.50;;;9.10;99.90;;;;;;4824839;29;20230;-86
2020/12/22 12:32:16;;;;;;;0.10;0.10;;;9.10;99.90;;;;;;4827731;29;20307;-86
2020/12/22 12:34:41;;;;;;;9.53;1.03;;;9.10;99.90;;;;;;4843955;29;20423;-87
2020/12/22 12:37:07;;;;;;;3.27;0.40;;;9.10;99.90;;;;;;4827287;29;20838;-87
2020/12/22 12:39:33;;;;;;;5.70;2.17;;;9.10;99.90;;;;;;4825715;29;20702;-87
2020/12/22 12:41:59;;;;;;;8.37;0.83;;;9.10;99.90;;;;;;4857442;29;20208;-86
2020/12/22 12:44:25;;;;;;;0.10;0.10;;;9.10;99.90;;;;;;4808310;29;21047;-86
2020/12/22 12:46:55;;;;;;;3.73;0.33;;;9.10;99.90;;;;;;4808632;29;20256;-87
2020/12/22 12:49:20;;;;;;;4.27;0.70;;;9.10;99.90;;;;;;4809758;29;20237;-87
2020/12/22 12:51:46;;;;;;;0.70;0.30;;;9.10;99.90;;;;;;4839077;29;20717;-89
2020/12/22 12:54:13;;;;;;;1.20;0.80;;;9.10;99.90;;;;;;4841236;29;20655;-86